Time;durP1;ratioP1;P1;durP2;ratioP2;P2;SDS_P1;SDS_P2;PMS_P1;PMS_P2;Temp;Humidity;BMP_temperature;BMP_pressure;BME280_temperature;BME280_humidity;BME280_pressure;Samples;Min_cycle;Max_cycle;Signal;HPM_P1;HPM_P2
2022/09/28 00:00:07;;;;;;;1.53;1.00;;;;;;;-143.84;84.08;45115.72;5069815;28;20973;-69
2022/09/28 00:02:34;;;;;;;1.90;1.40;;;;;;;-143.84;84.31;45121.44;5069878;28;20517;-69
2022/09/28 00:05:02;;;;;;;2.43;1.23;;;;;;;-143.84;84.46;45110.00;5069637;28;20783;-69
2022/09/28 00:07:29;;;;;;;1.80;1.47;;;;;;;-143.84;84.75;45115.72;5069641;28;20436;-69
2022/09/28 00:09:57;;;;;;;2.73;1.30;;;;;;;-143.84;84.40;45125.22;5069864;28;20476;-69
2022/09/28 00:12:25;;;;;;;4.50;1.40;;;;;;;-143.84;84.14;45140.47;5069892;28;20858;-69
2022/09/28 00:14:52;;;;;;;2.40;1.27;;;;;;;-143.84;84.64;45125.22;5069386;28;20445;-69
2022/09/28 00:17:21;;;;;;;1.70;1.20;;;;;;;-143.84;84.94;45111.91;5069616;28;20672;-69
2022/09/28 00:19:48;;;;;;;2.00;1.40;;;;;;;-143.84;84.50;45117.63;5069525;28;20444;-69
2022/09/28 00:22:16;;;;;;;4.07;1.43;;;;;;;-143.84;84.45;45094.78;5069554;28;20513;-69
2022/09/28 00:24:43;;;;;;;5.13;1.20;;;;;;;-143.84;84.17;45136.66;5069291;28;20509;-69
2022/09/28 00:27:12;;;;;;;1.43;1.33;;;;;;;-143.84;84.38;45119.53;5069445;28;20527;-69
2022/09/28 00:29:39;;;;;;;2.20;1.23;;;;;;;-143.84;83.43;45125.22;5068956;28;20901;-69
2022/09/28 00:32:10;;;;;;;1.13;1.03;;;;;;;-143.84;83.22;45100.47;5069278;28;20864;-69
2022/09/28 00:34:41;;;;;;;2.00;1.10;;;;;;;-143.84;83.45;45117.63;5069123;28;20994;-68
2022/09/28 00:37:09;;;;;;;3.67;1.23;;;;;;;-143.84;83.55;45085.25;5069146;28;20449;-68
2022/09/28 00:39:37;;;;;;;1.10;1.00;;;;;;;-143.84;83.37;45111.91;5069058;28;20494;-68
2022/09/28 00:42:13;;;;;;;2.23;0.97;;;;;;;-143.84;83.40;45121.44;5069206;28;20447;-68
2022/09/28 00:44:48;;;;;;;2.70;1.03;;;;;;;-143.84;83.52;45115.72;5068846;28;20530;-68
2022/09/28 00:47:24;;;;;;;3.60;1.13;;;;;;;-143.84;83.71;45119.53;5068617;28;20442;-68
2022/09/28 00:49:57;;;;;;;1.03;0.93;;;;;;;-143.84;83.83;45108.09;5068200;28;20543;-69
2022/09/28 00:52:28;;;;;;;5.93;1.60;;;;;;;-143.84;83.98;45130.94;5068959;28;20478;-68
2022/09/28 00:54:58;;;;;;;1.53;1.13;;;;;;;-143.84;83.95;45119.53;5067686;28;20529;-69
2022/09/28 00:57:27;;;;;;;1.33;1.23;;;;;;;-143.84;84.13;45123.34;5068112;28;20442;-69
2022/09/28 00:59:55;;;;;;;1.70;1.50;;;;;;;-143.84;84.31;45119.53;5068962;28;20516;-69
2022/09/28 01:02:22;;;;;;;3.70;1.33;;;;;;;-143.84;84.26;45119.53;5068836;28;20438;-69
2022/09/28 01:04:51;;;;;;;1.40;1.30;;;;;;;-143.84;84.66;45142.38;5069029;28;20481;-69
2022/09/28 01:07:18;;;;;;;1.33;1.10;;;;;;;-143.84;84.55;45138.56;5068879;28;20510;-69
2022/09/28 01:09:46;;;;;;;1.07;0.97;;;;;;;-143.84;84.75;45104.28;5068594;28;20538;-69
2022/09/28 01:12:13;;;;;;;2.63;1.37;;;;;;;-143.84;84.75;45132.84;5068838;28;20953;-69
2022/09/28 01:14:43;;;;;;;1.70;1.20;;;;;;;-143.84;84.89;45119.53;5068411;28;20429;-69
2022/09/28 01:17:16;;;;;;;1.40;1.23;;;;;;;-143.84;85.16;45138.56;5069128;28;20443;-69
2022/09/28 01:20:15;;;;;;;1.20;1.10;;;;;;;-143.84;85.18;45138.56;5068625;28;20448;-70
2022/09/28 01:23:11;;;;;;;1.30;1.20;;;;;;;-143.84;84.85;45121.44;5043485;28;20450;-69
2022/09/28 01:25:42;;;;;;;1.47;1.37;;;;;;;-143.84;84.78;45119.53;5067676;28;20482;-69
2022/09/28 01:28:14;;;;;;;2.20;1.40;;;;;;;-143.84;84.38;45125.22;5067806;28;20438;-69
2022/09/28 01:30:53;;;;;;;2.17;1.40;;;;;;;-143.84;84.13;45096.66;5068840;28;20437;-69
2022/09/28 01:33:25;;;;;;;2.10;1.70;;;;;;;-143.84;83.83;45100.47;5068630;28;20450;-69
2022/09/28 01:35:57;;;;;;;4.47;1.63;;;;;;;-143.84;84.05;45134.75;5068616;28;20522;-69
2022/09/28 01:38:31;;;;;;;5.63;1.30;;;;;;;-143.84;83.82;45108.09;5072383;28;20439;-69
2022/09/28 01:40:59;;;;;;;3.20;1.77;;;;;;;-143.84;83.97;45176.66;5072556;28;21394;-69
2022/09/28 01:43:30;;;;;;;4.13;1.60;;;;;;;-143.84;83.60;45129.03;5072489;28;20480;-70
2022/09/28 01:46:04;;;;;;;10.07;1.97;;;;;;;-143.84;83.47;45108.09;5072369;28;20450;-70
2022/09/28 01:48:36;;;;;;;2.63;1.80;;;;;;;-143.84;83.51;45119.53;5072082;28;20839;-69
2022/09/28 01:51:12;;;;;;;2.50;1.60;;;;;;;-143.84;83.25;45140.47;5071874;28;20487;-69
2022/09/28 01:53:43;;;;;;;2.27;1.50;;;;;;;-143.84;82.95;45115.72;5072307;28;21000;-69
2022/09/28 01:56:17;;;;;;;2.27;1.77;;;;;;;-143.84;82.78;45134.75;5072128;28;20499;-69
2022/09/28 01:58:51;;;;;;;1.90;1.10;;;;;;;-143.84;82.16;45121.44;5072092;28;20443;-69
2022/09/28 02:01:24;;;;;;;5.63;1.30;;;;;;;-143.84;81.98;45110.00;5070768;28;20459;-69
2022/09/28 02:03:59;;;;;;;1.10;1.00;;;;;;;-143.84;81.90;45106.19;5072073;28;20439;-69
2022/09/28 02:06:32;;;;;;;2.00;1.13;;;;;;;-143.84;81.64;45151.91;5071897;28;20501;-69
2022/09/28 02:09:03;;;;;;;2.47;1.47;;;;;;;-143.84;81.55;45106.19;5072215;28;20473;-69
2022/09/28 02:11:32;;;;;;;1.30;1.20;;;;;;;-143.84;81.53;45110.00;5071806;28;20456;-69
2022/09/28 02:14:04;;;;;;;3.67;1.20;;;;;;;-143.84;81.33;45132.84;5071985;28;20438;-69
2022/09/28 02:16:37;;;;;;;2.80;0.90;;;;;;;-143.84;81.56;45134.75;5071880;28;20475;-69
2022/09/28 02:19:05;;;;;;;1.30;1.20;;;;;;;-143.84;80.92;45106.19;5071666;28;21290;-70
2022/09/28 02:21:41;;;;;;;1.30;1.20;;;;;;;-143.84;80.53;45130.94;5071777;28;20497;-70
2022/09/28 02:24:15;;;;;;;1.47;1.37;;;;;;;-143.84;80.53;45106.19;5072052;28;20477;-69
2022/09/28 02:26:46;;;;;;;3.87;1.40;;;;;;;-143.84;80.33;45148.09;5071469;28;20960;-69
2022/09/28 02:29:16;;;;;;;3.73;1.33;;;;;;;-143.84;80.45;45117.63;5071497;28;20488;-69
2022/09/28 02:31:43;;;;;;;1.27;1.17;;;;;;;-143.84;80.39;45127.13;5071835;28;21212;-69
2022/09/28 02:34:10;;;;;;;1.23;1.13;;;;;;;-143.84;80.25;45144.28;5071675;28;21227;-69
2022/09/28 02:36:37;;;;;;;1.40;1.30;;;;;;;-143.84;80.42;45130.94;5071713;28;20440;-69
2022/09/28 02:39:05;;;;;;;2.03;1.13;;;;;;;-143.84;80.65;45123.34;5071757;28;20469;-69
2022/09/28 02:41:46;;;;;;;5.13;1.73;;;;;;;-143.84;81.22;45129.03;5071466;28;20445;-69
2022/09/28 02:44:29;;;;;;;2.43;1.63;;;;;;;-143.84;80.94;45111.91;5071313;28;20510;-69
2022/09/28 02:47:04;;;;;;;4.80;1.60;;;;;;;-143.84;80.73;45130.94;5071347;28;20513;-69
2022/09/28 02:49:38;;;;;;;1.40;1.30;;;;;;;-143.84;80.65;45129.03;5073454;28;20911;-69
2022/09/28 02:52:33;;;;;;;1.30;1.20;;;;;;;-143.84;80.04;45110.00;5091118;28;20484;-70
2022/09/28 02:55:30;;;;;;;3.20;1.67;;;;;;;-143.84;80.25;45115.72;5091211;28;20443;-69
2022/09/28 02:58:14;;;;;;;1.70;1.00;;;;;;;-143.84;80.21;45108.09;5091104;28;20452;-69
2022/09/28 03:00:49;;;;;;;1.13;1.03;;;;;;;-143.84;80.34;45108.09;5091257;28;20450;-69
2022/09/28 03:03:22;;;;;;;1.67;1.40;;;;;;;-143.84;80.56;45100.47;5091023;28;20501;-69
2022/09/28 03:05:59;;;;;;;1.60;1.37;;;;;;;-143.84;80.84;45092.88;5091306;28;20511;-69
2022/09/28 03:08:32;;;;;;;1.57;1.47;;;;;;;-143.84;80.68;45117.63;5091206;28;20449;-69
2022/09/28 03:11:02;;;;;;;4.00;1.97;;;;;;;-143.84;80.90;45113.81;5090503;28;20487;-69
2022/09/28 03:13:31;;;;;;;2.00;1.87;;;;;;;-143.84;80.89;45153.81;5090925;28;20802;-69
2022/09/28 03:16:12;;;;;;;1.40;1.30;;;;;;;-143.84;81.01;45146.19;5090641;28;20447;-69
2022/09/28 03:18:39;;;;;;;2.80;1.70;;;;;;;-143.84;80.85;45119.53;5090652;28;20503;-69
2022/09/28 03:21:06;;;;;;;1.90;1.60;;;;;;;-143.84;80.75;45127.13;5090965;28;20450;-69
2022/09/28 03:23:33;;;;;;;1.63;1.53;;;;;;;-143.84;80.68;45127.13;5090495;28;20526;-69
2022/09/28 03:26:00;;;;;;;2.07;1.67;;;;;;;-143.84;80.79;45129.03;5090579;28;20446;-69
2022/09/28 03:28:28;;;;;;;1.57;1.40;;;;;;;-143.84;80.67;45121.44;5090493;28;20497;-69
2022/09/28 03:30:55;;;;;;;1.80;1.67;;;;;;;-143.84;80.95;45108.09;5090630;28;20493;-69
2022/09/28 03:33:23;;;;;;;1.50;1.40;;;;;;;-143.84;80.76;45113.81;5087342;28;20459;-69
2022/09/28 03:35:51;;;;;;;2.80;1.53;;;;;;;-143.84;80.39;45134.75;5090394;28;20443;-69
2022/09/28 03:38:18;;;;;;;1.80;1.70;;;;;;;-143.84;80.47;45121.44;5090090;28;20457;-69
2022/09/28 03:40:53;;;;;;;3.10;1.77;;;;;;;-143.84;80.18;45121.44;5090187;28;20455;-69
2022/09/28 03:43:20;;;;;;;1.60;1.50;;;;;;;-143.84;80.08;45125.22;5069934;28;20450;-70
2022/09/28 03:45:53;;;;;;;1.63;1.53;;;;;;;-143.84;80.28;45110.00;5069851;28;20988;-70
2022/09/28 03:48:24;;;;;;;3.47;1.43;;;;;;;-143.84;80.20;45119.53;5090577;28;20466;-69
2022/09/28 03:50:54;;;;;;;2.00;1.90;;;;;;;-143.84;80.25;45140.47;5110339;28;20505;-69
2022/09/28 03:53:22;;;;;;;1.60;1.50;;;;;;;-143.84;80.30;45110.00;5069851;28;20424;-70
2022/09/28 03:55:52;;;;;;;6.17;2.30;;;;;;;-143.84;80.29;45125.22;5069751;28;20448;-69
2022/09/28 03:58:19;;;;;;;6.60;2.50;;;;;;;-143.84;80.19;45132.84;5073821;28;20960;-70
2022/09/28 04:00:47;;;;;;;4.63;2.13;;;;;;;-143.84;80.19;45113.81;5099429;28;20786;-71
2022/09/28 04:03:14;;;;;;;5.03;2.30;;;;;;;-143.84;80.29;45117.63;5110189;28;20989;-70
2022/09/28 04:05:50;;;;;;;4.93;1.90;;;;;;;-143.84;80.15;45092.88;5109971;28;20444;-71
2022/09/28 04:08:17;;;;;;;3.97;2.10;;;;;;;-143.84;80.29;45127.13;5109685;28;20951;-71
2022/09/28 04:10:44;;;;;;;3.43;2.47;;;;;;;-143.84;80.30;45119.53;5109838;28;20844;-73
2022/09/28 04:13:12;;;;;;;2.67;1.93;;;;;;;-143.84;80.16;45136.66;5109151;28;20507;-71
2022/09/28 04:15:39;;;;;;;2.33;1.73;;;;;;;-143.84;79.90;45136.66;5109182;28;20968;-72
2022/09/28 04:18:10;;;;;;;2.10;2.00;;;;;;;-143.84;79.59;45121.44;5109118;28;20851;-72
2022/09/28 04:20:39;;;;;;;2.13;1.90;;;;;;;-143.84;79.37;45119.53;5110096;28;20465;-73
2022/09/28 04:23:08;;;;;;;3.43;1.83;;;;;;;-143.84;79.33;45110.00;5109701;28;20438;-72
2022/09/28 04:25:36;;;;;;;2.03;1.90;;;;;;;-143.84;78.58;45110.00;5109901;28;21121;-74
2022/09/28 04:30:47;;;;;;;2.40;2.20;;;;;;;-143.84;77.49;45146.19;5110003;28;20465;-74
2022/09/28 04:33:14;;;;;;;2.00;1.90;;;;;;;-143.84;77.00;45138.56;5110102;28;21318;-74
2022/09/28 04:35:42;;;;;;;1.90;1.80;;;;;;;-143.84;76.77;45106.19;5110352;28;20940;-75
2022/09/28 04:38:10;;;;;;;2.20;2.07;;;;;;;-143.84;75.90;45083.34;5110274;28;20490;-73
2022/09/28 04:40:37;;;;;;;2.60;2.40;;;;;;;-143.84;76.03;45121.44;5110767;28;20443;-77
2022/09/28 04:43:04;;;;;;;2.67;2.13;;;;;;;-143.84;75.69;45102.38;5110228;28;20469;-75
2022/09/28 04:45:32;;;;;;;2.90;2.37;;;;;;;-143.84;75.69;45092.88;5110050;28;20427;-75
2022/09/28 04:47:59;;;;;;;3.40;2.50;;;;;;;-143.84;75.45;45119.53;5110498;28;20805;-75
2022/09/28 04:50:26;;;;;;;16.30;2.60;;;;;;;-143.84;75.32;45102.38;5109870;28;20498;-75
2022/09/28 04:52:53;;;;;;;5.37;2.60;;;;;;;-143.84;74.98;45117.63;5110005;28;20446;-75
2022/09/28 04:55:22;;;;;;;3.80;2.40;;;;;;;-143.84;74.07;45106.19;5091883;28;20440;-76
2022/09/28 04:57:49;;;;;;;4.03;2.10;;;;;;;-143.84;73.20;45090.97;5107089;28;20503;-76
2022/09/28 05:00:16;;;;;;;6.07;2.07;;;;;;;-143.84;72.10;45104.28;5077223;28;20452;-76
2022/09/28 05:02:44;;;;;;;2.37;2.17;;;;;;;-143.84;70.23;45117.63;5077687;28;20535;-76
2022/09/28 05:05:11;;;;;;;2.90;2.00;;;;;;;-143.84;69.75;45115.72;5081922;28;20513;-76
2022/09/28 05:07:40;;;;;;;6.33;1.93;;;;;;;-143.84;68.86;45092.88;5073187;28;20482;-76
2022/09/28 05:10:08;;;;;;;2.73;1.90;;;;;;;-143.84;68.24;45092.88;5071452;28;21053;-76
2022/09/28 05:12:36;;;;;;;3.30;2.20;;;;;;;-143.84;67.59;45098.56;5086552;28;20974;-76
2022/09/28 05:15:04;;;;;;;3.37;2.17;;;;;;;-143.84;66.11;45094.78;5089809;28;20456;-76
2022/09/28 05:17:31;;;;;;;5.57;2.03;;;;;;;-143.84;65.80;45079.53;5086254;28;20463;-76
2022/09/28 05:19:59;;;;;;;3.20;1.90;;;;;;;-143.84;64.76;45098.56;5088573;28;20455;-76
2022/09/28 05:22:26;;;;;;;3.40;2.07;;;;;;;-143.84;64.22;45090.97;5108487;28;20446;-76
2022/09/28 05:24:54;;;;;;;5.03;2.20;;;;;;;-143.84;63.60;45089.06;5107252;28;20524;-76
2022/09/28 05:27:21;;;;;;;6.73;1.97;;;;;;;-143.84;62.65;45089.06;5088171;28;20455;-74
2022/09/28 05:29:50;;;;;;;2.80;1.63;;;;;;;-143.84;61.66;45089.06;5099515;28;20485;-74
2022/09/28 05:32:17;;;;;;;3.70;1.70;;;;;;;-143.84;61.38;45089.06;5073523;28;20464;-74
2022/09/28 05:34:44;;;;;;;5.50;1.70;;;;;;;-143.84;60.37;45087.16;5101122;28;20454;-74
2022/09/28 05:37:11;;;;;;;1.97;1.40;;;;;;;-143.84;59.75;45054.78;5086070;28;20985;-74
2022/09/28 05:39:38;;;;;;;3.53;1.83;;;;;;;-143.84;58.85;45079.53;5078683;28;20524;-74
2022/09/28 05:42:06;;;;;;;2.07;1.50;;;;;;;-143.84;57.99;45052.88;5076285;28;20962;-74
2022/09/28 05:44:33;;;;;;;1.93;1.60;;;;;;;-143.84;57.17;45049.06;5078133;28;20464;-74
2022/09/28 05:47:02;;;;;;;2.07;1.50;;;;;;;-143.84;57.11;45079.53;5088263;28;20444;-74
2022/09/28 05:49:31;;;;;;;3.97;1.43;;;;;;;-143.84;57.05;45060.50;5078697;28;20448;-74
2022/09/28 05:51:58;;;;;;;4.90;1.43;;;;;;;-143.84;56.68;45087.16;5078546;28;20611;-74
2022/09/28 05:54:25;;;;;;;4.70;1.50;;;;;;;-143.84;55.22;45100.47;5091454;28;20956;-74
2022/09/28 05:56:52;;;;;;;1.10;1.00;;;;;;;-143.84;55.22;45073.81;5094513;28;20500;-74
2022/09/28 05:59:19;;;;;;;2.13;1.60;;;;;;;-143.84;54.68;45079.53;5091552;28;20463;-74
2022/09/28 06:01:47;;;;;;;2.03;1.80;;;;;;;-143.84;55.12;45071.91;5081562;28;20509;-74
2022/09/28 06:04:16;;;;;;;6.50;1.80;;;;;;;-143.84;55.03;45045.25;5081114;28;20453;-73
2022/09/28 06:06:43;;;;;;;2.13;1.60;;;;;;;-143.84;53.75;45085.25;5073549;28;20476;-73
2022/09/28 06:09:10;;;;;;;2.43;1.50;;;;;;;-143.84;54.86;45071.91;5071978;28;20444;-73
2022/09/28 06:11:37;;;;;;;1.60;1.50;;;;;;;-143.84;52.58;45039.53;5071537;28;20480;-74
2022/09/28 06:14:05;;;;;;;6.50;1.57;;;;;;;-143.84;52.81;45054.78;5071623;28;20966;-74
2022/09/28 06:16:33;;;;;;;7.37;2.10;;;;;;;-143.84;51.55;45062.41;5071630;28;20528;-74
2022/09/28 06:19:00;;;;;;;3.80;2.10;;;;;;;-143.84;51.88;45056.69;5073746;28;20445;-74
2022/09/28 06:21:29;;;;;;;4.73;1.87;;;;;;;-143.84;51.50;45054.78;5086394;28;20529;-74
2022/09/28 06:23:56;;;;;;;10.10;2.13;;;;;;;-143.84;51.65;45047.16;5071268;28;20449;-75
2022/09/28 06:26:23;;;;;;;6.13;2.17;;;;;;;-143.84;52.20;45043.34;5071634;28;20510;-74
2022/09/28 06:28:50;;;;;;;4.10;1.80;;;;;;;-143.84;51.96;45049.06;5071530;28;20451;-74
2022/09/28 06:31:22;;;;;;;7.07;1.90;;;;;;;-143.84;52.64;45052.88;5071197;28;20538;-74
2022/09/28 06:33:50;;;;;;;7.10;2.23;;;;;;;-143.84;53.35;45066.22;5071344;28;20532;-74
2022/09/28 06:36:18;;;;;;;9.83;2.30;;;;;;;-143.84;52.25;45056.69;5071354;28;20494;-74
2022/09/28 06:38:47;;;;;;;10.00;2.20;;;;;;;-143.84;50.88;45071.91;5071337;28;20540;-74
2022/09/28 06:41:14;;;;;;;6.20;2.10;;;;;;;-143.84;50.09;45024.31;5071237;28;20441;-74
2022/09/28 06:43:41;;;;;;;7.33;1.70;;;;;;;-143.84;49.83;45047.16;5071034;28;20441;-75
2022/09/28 06:46:09;;;;;;;3.50;1.93;;;;;;;-143.84;48.76;45041.44;5071112;28;20433;-75
2022/09/28 06:48:36;;;;;;;4.43;1.73;;;;;;;-143.84;48.42;45045.25;5070824;28;20429;-75
2022/09/28 06:51:04;;;;;;;4.43;1.47;;;;;;;-143.84;49.30;45043.34;5070981;28;20504;-75
2022/09/28 06:53:31;;;;;;;2.17;1.63;;;;;;;-143.84;46.32;45043.34;5071430;28;20437;-75
2022/09/28 06:56:01;;;;;;;9.70;1.50;;;;;;;-143.84;46.66;45030.03;5071176;28;20453;-75
2022/09/28 06:58:30;;;;;;;1.57;1.30;;;;;;;-143.84;46.58;45058.59;5070800;28;20455;-75
2022/09/28 07:00:58;;;;;;;4.23;1.63;;;;;;;-143.84;46.78;45035.75;5070733;28;20966;-75
2022/09/28 07:03:26;;;;;;;5.97;1.50;;;;;;;-143.84;46.23;45028.13;5070780;28;20901;-75
2022/09/28 07:05:55;;;;;;;1.63;1.53;;;;;;;-143.84;45.88;45043.34;5070267;28;20456;-74
2022/09/28 07:08:24;;;;;;;8.80;1.30;;;;;;;-143.84;45.01;45039.53;5085473;28;20890;-74
2022/09/28 07:10:55;;;;;;;2.30;0.90;;;;;;;-143.84;43.57;45026.22;5089730;28;20479;-74
2022/09/28 07:13:26;;;;;;;6.00;1.50;;;;;;;-143.84;43.04;45018.59;5090413;28;21232;-74
2022/09/28 07:15:58;;;;;;;3.70;1.20;;;;;;;-143.84;43.45;45033.84;5090659;28;20456;-74
2022/09/28 07:18:25;;;;;;;3.40;1.20;;;;;;;-143.84;43.93;45033.84;5090556;28;20457;-74
2022/09/28 07:20:52;;;;;;;3.63;1.60;;;;;;;-143.84;42.51;45031.94;5090620;28;20956;-74
2022/09/28 07:23:21;;;;;;;4.83;1.17;;;;;;;-143.84;41.92;45031.94;5090565;28;20432;-72
2022/09/28 07:25:48;;;;;;;3.67;1.30;;;;;;;-143.84;41.91;45028.13;5090617;28;20442;-72
2022/09/28 07:28:16;;;;;;;5.37;1.40;;;;;;;-143.84;41.54;45018.59;5090389;28;20486;-72
2022/09/28 07:30:44;;;;;;;1.30;1.20;;;;;;;-143.84;41.96;45026.22;5090179;28;20483;-72
2022/09/28 07:33:13;;;;;;;2.47;1.40;;;;;;;-143.84;42.19;45001.47;5090323;28;20444;-72
2022/09/28 07:35:41;;;;;;;4.17;1.60;;;;;;;-143.84;42.31;45026.22;5089389;28;20446;-71
2022/09/28 07:38:10;;;;;;;5.17;1.67;;;;;;;-143.84;42.93;45018.59;5090104;28;20486;-72
2022/09/28 07:43:22;;;;;;;4.23;1.70;;;;;;;-143.84;42.54;45005.28;5090262;28;20914;-71
2022/09/28 07:45:52;;;;;;;3.50;1.60;;;;;;;-143.84;41.78;45033.84;5090061;28;20505;-72
2022/09/28 07:48:20;;;;;;;8.50;1.70;;;;;;;-143.84;42.08;45033.84;5089973;28;21022;-72
2022/09/28 07:50:50;;;;;;;4.03;1.70;;;;;;;-143.84;42.59;45009.09;5089540;28;20488;-72
2022/09/28 07:53:19;;;;;;;11.13;2.27;;;;;;;-143.84;41.40;45020.50;5089755;28;20954;-72
2022/09/28 07:55:51;;;;;;;4.00;2.13;;;;;;;-143.84;42.33;44995.75;5089942;28;20769;-72
2022/09/28 07:58:19;;;;;;;4.90;2.30;;;;;;;-143.84;41.65;45005.28;5089927;28;20844;-72
2022/09/28 08:00:47;;;;;;;2.50;1.87;;;;;;;-143.84;41.30;45026.22;5089475;28;20493;-72
2022/09/28 08:03:16;;;;;;;4.97;2.30;;;;;;;-143.84;40.44;44993.84;5089679;28;20443;-71
2022/09/28 08:05:44;;;;;;;2.20;2.00;;;;;;;-143.84;41.10;44999.56;5089647;28;20995;-72
2022/09/28 08:08:12;;;;;;;4.90;2.00;;;;;;;-143.84;41.45;44972.91;5089564;28;20448;-71
2022/09/28 08:10:39;;;;;;;6.73;2.70;;;;;;;-143.84;41.77;45001.47;5089570;28;21208;-72
2022/09/28 08:13:06;;;;;;;2.60;2.40;;;;;;;-143.84;41.58;45010.97;5089677;28;20513;-71
2022/09/28 08:15:35;;;;;;;6.73;2.10;;;;;;;-143.84;40.47;44969.09;5089385;28;20807;-72
2022/09/28 08:18:03;;;;;;;4.40;2.07;;;;;;;-143.84;40.31;44982.41;5089440;28;20472;-72
2022/09/28 08:23:17;;;;;;;8.10;2.67;;;;;;;-143.84;39.97;45012.88;5089466;28;20801;-71
2022/09/28 08:25:48;;;;;;;6.97;3.00;;;;;;;-143.84;40.94;44990.03;5089282;28;20432;-71
2022/09/28 08:28:16;;;;;;;7.23;2.40;;;;;;;-143.84;40.97;45003.38;5089150;28;20518;-71
2022/09/28 08:30:43;;;;;;;4.43;2.80;;;;;;;-143.84;40.38;45035.75;5089119;28;20444;-71
2022/09/28 08:33:11;;;;;;;3.63;2.13;;;;;;;-143.84;40.68;45012.88;5089559;28;20444;-71
2022/09/28 08:35:40;;;;;;;9.80;3.40;;;;;;;-143.84;40.85;44995.75;5089228;28;20432;-71
2022/09/28 08:38:08;;;;;;;8.37;3.60;;;;;;;-143.84;41.57;44951.97;5089110;28;20448;-71
2022/09/28 08:40:43;;;;;;;11.03;3.60;;;;;;;-143.84;41.87;44974.81;5089214;28;20439;-71
2022/09/28 08:43:40;;;;;;;15.03;3.40;;;;;;;-143.84;41.19;44993.84;5089000;28;20533;-71
2022/09/28 08:46:09;;;;;;;8.13;4.10;;;;;;;-143.84;40.81;45003.38;5089350;28;20436;-71
2022/09/28 08:48:47;;;;;;;11.00;4.27;;;;;;;-143.84;40.71;44999.56;5088941;28;20435;-71
2022/09/28 08:51:20;;;;;;;6.30;3.00;;;;;;;-143.84;40.81;44971.00;5088619;28;20487;-71
2022/09/28 08:53:53;;;;;;;6.00;3.20;;;;;;;-143.84;40.69;44988.13;5088943;28;20444;-71
2022/09/28 08:56:29;;;;;;;3.00;2.80;;;;;;;-143.84;40.81;44995.75;5088876;28;21074;-71
2022/09/28 08:59:02;;;;;;;5.33;3.00;;;;;;;-143.84;40.86;44984.31;5089089;28;20501;-71
2022/09/28 09:01:35;;;;;;;6.63;3.03;;;;;;;-143.84;40.66;44982.41;5088731;28;20447;-71
2022/09/28 09:04:05;;;;;;;6.03;3.13;;;;;;;-143.84;40.14;44999.56;5088906;28;20442;-71
2022/09/28 09:06:50;;;;;;;7.30;3.57;;;;;;;-143.84;40.17;44978.63;5089050;28;20443;-71
2022/09/28 09:09:31;;;;;;;17.13;4.00;;;;;;;-143.84;39.36;44999.56;5089000;28;20435;-71
2022/09/28 09:12:07;;;;;;;5.73;2.77;;;;;;;-143.84;39.99;44965.28;5088590;28;20482;-71
2022/09/28 09:15:05;;;;;;;4.90;2.80;;;;;;;-143.84;39.09;44999.56;5089184;28;20450;-71
2022/09/28 09:17:43;;;;;;;7.60;3.60;;;;;;;-143.84;39.52;44963.38;5088922;28;20509;-70
2022/09/28 09:20:19;;;;;;;7.00;2.87;;;;;;;-143.84;38.95;44999.56;5089100;28;20452;-71
2022/09/28 09:22:58;;;;;;;7.43;3.00;;;;;;;-143.84;38.12;44986.22;5088861;28;21029;-71
2022/09/28 09:25:31;;;;;;;9.63;2.77;;;;;;;-143.84;38.93;44972.91;5088989;28;20554;-71
2022/09/28 09:28:44;;;;;;;3.80;1.93;;;;;;;-143.84;38.17;44965.28;5088850;28;20534;-71
2022/09/28 09:31:25;;;;;;;6.20;2.27;;;;;;;-143.84;38.25;44978.63;5083035;28;20491;-71
2022/09/28 09:34:35;;;;;;;4.27;2.47;;;;;;;-143.84;38.12;45012.88;5088566;28;20439;-71
2022/09/28 09:37:12;;;;;;;2.10;1.90;;;;;;;-143.84;37.20;44984.31;5051894;28;20448;-71
2022/09/28 09:39:57;;;;;;;4.20;1.73;;;;;;;-143.84;37.47;44999.56;5088602;28;20501;-71
2022/09/28 09:42:39;;;;;;;8.30;2.00;;;;;;;-143.84;36.02;44984.31;5088380;28;20443;-71
2022/09/28 09:45:29;;;;;;;4.10;1.93;;;;;;;-143.84;36.11;44980.53;5088464;28;20432;-71
2022/09/28 09:48:01;;;;;;;4.43;2.17;;;;;;;-143.84;36.68;44993.84;5088083;28;20462;-71
2022/09/28 09:50:32;;;;;;;9.03;2.77;;;;;;;-143.84;36.27;44961.47;5088308;28;20528;-71
2022/09/28 09:53:04;;;;;;;2.13;1.90;;;;;;;-143.84;35.20;45014.78;5087662;28;20479;-71
2022/09/28 09:55:39;;;;;;;2.87;2.00;;;;;;;-143.84;35.02;44990.03;5087696;28;20440;-71
2022/09/28 09:58:13;;;;;;;2.50;1.83;;;;;;;-143.84;34.99;44978.63;5089745;28;20451;-71
2022/09/28 10:00:44;;;;;;;6.73;1.90;;;;;;;-143.84;33.95;45007.19;5091228;28;20439;-71
2022/09/28 10:03:21;;;;;;;2.20;1.83;;;;;;;-143.84;33.86;44995.75;5091357;28;20451;-71
2022/09/28 10:05:52;;;;;;;2.73;1.40;;;;;;;-143.84;33.96;44984.31;5091928;28;20446;-71
2022/09/28 10:08:22;;;;;;;9.77;1.87;;;;;;;-143.84;33.68;44971.00;5092091;28;20436;-71
2022/09/28 10:10:56;;;;;;;4.47;1.80;;;;;;;-143.84;33.34;45001.47;5092282;28;20802;-71
2022/09/28 10:13:23;;;;;;;3.33;1.57;;;;;;;-143.84;34.35;44991.94;5092436;28;20459;-71
2022/09/28 10:15:51;;;;;;;4.60;1.50;;;;;;;-143.84;33.40;44942.44;5092205;28;20835;-71
2022/09/28 10:18:21;;;;;;;6.00;1.50;;;;;;;-143.84;33.44;44972.91;5091982;28;20442;-71
2022/09/28 10:20:49;;;;;;;5.37;1.30;;;;;;;-143.84;33.03;44963.38;5091684;28;20508;-71
2022/09/28 10:23:24;;;;;;;4.30;1.50;;;;;;;-143.84;32.85;44969.09;5091881;28;20438;-71
2022/09/28 10:25:58;;;;;;;15.00;2.33;;;;;;;-143.84;33.25;44980.53;5091687;28;20456;-71
2022/09/28 10:28:34;;;;;;;4.07;1.40;;;;;;;-143.84;33.65;45022.41;5091865;28;20443;-71
2022/09/28 10:31:21;;;;;;;6.20;1.40;;;;;;;-143.84;32.67;44980.53;5091696;28;20439;-71
2022/09/28 10:33:49;;;;;;;25.10;3.23;;;;;;;-143.84;33.78;44972.91;5091141;28;20488;-71
2022/09/28 10:36:16;;;;;;;4.73;2.00;;;;;;;-143.84;33.20;45010.97;5091500;28;20442;-71
2022/09/28 10:38:48;;;;;;;4.77;2.17;;;;;;;-143.84;32.64;44971.00;5090145;28;20857;-71
2022/09/28 10:41:18;;;;;;;2.17;1.53;;;;;;;-143.84;33.08;44976.72;5087934;28;20451;-71
2022/09/28 10:44:04;;;;;;;4.70;2.00;;;;;;;-143.84;33.37;44988.13;5091202;28;20593;-71
2022/09/28 10:46:33;;;;;;;4.60;1.70;;;;;;;-143.84;32.20;44984.31;5080495;28;20531;-71
2022/09/28 10:49:04;;;;;;;5.23;1.63;;;;;;;-143.84;31.90;44980.53;5087705;28;20823;-71
2022/09/28 10:51:42;;;;;;;7.93;1.63;;;;;;;-143.84;31.58;44971.00;5080565;28;20496;-71
2022/09/28 10:54:16;;;;;;;3.50;1.80;;;;;;;-143.84;32.38;44963.38;5090971;28;20437;-70
2022/09/28 10:56:47;;;;;;;4.87;1.50;;;;;;;-143.84;32.00;44965.28;5090448;28;20455;-70
2022/09/28 10:59:40;;;;;;;5.90;1.67;;;;;;;-143.84;32.78;44980.53;5090454;28;21176;-70
2022/09/28 11:02:20;;;;;;;3.57;1.10;;;;;;;-143.84;32.29;44965.28;5091062;28;20978;-69
2022/09/28 11:04:52;;;;;;;4.03;1.47;;;;;;;-143.84;32.17;44965.28;5090173;28;20470;-69
2022/09/28 11:07:23;;;;;;;5.50;1.63;;;;;;;-143.84;30.87;44959.56;5089531;28;20451;-68
2022/09/28 11:09:53;;;;;;;2.80;1.43;;;;;;;-143.84;31.41;44971.00;5088305;28;20501;-69
2022/09/28 11:12:25;;;;;;;3.00;1.40;;;;;;;-143.84;31.66;44974.81;5089325;28;20476;-68
2022/09/28 11:14:58;;;;;;;7.70;1.20;;;;;;;-143.84;31.45;44953.88;5089276;28;20439;-68
2022/09/28 11:17:29;;;;;;;4.00;1.70;;;;;;;-143.84;30.94;44971.00;5089519;28;20458;-68
2022/09/28 11:19:57;;;;;;;2.80;1.60;;;;;;;-143.84;31.24;44932.91;5090056;28;20448;-68
2022/09/28 11:22:29;;;;;;;3.83;1.50;;;;;;;-143.84;31.25;44946.25;5090302;28;20961;-69
2022/09/28 11:25:23;;;;;;;1.73;1.40;;;;;;;-143.84;30.49;44955.75;5090446;28;20440;-69
2022/09/28 11:27:59;;;;;;;4.27;1.67;;;;;;;-143.84;30.61;44967.19;5090634;28;20448;-69
2022/09/28 11:30:31;;;;;;;2.80;1.37;;;;;;;-143.84;31.25;44957.66;5090755;28;20431;-69
2022/09/28 11:33:04;;;;;;;5.23;1.70;;;;;;;-143.84;36.58;44965.28;5090534;28;20479;-69
2022/09/28 11:35:44;;;;;;;3.23;2.00;;;;;;;-143.84;37.98;44953.88;5090421;28;20440;-69
2022/09/28 11:38:33;;;;;;;4.83;2.20;;;;;;;-143.84;38.19;44982.41;5090070;28;20428;-69
2022/09/28 11:41:17;;;;;;;1.87;1.43;;;;;;;-143.84;39.26;44988.13;5090297;28;20456;-69
2022/09/28 11:43:58;;;;;;;5.20;2.10;;;;;;;-143.84;37.48;44965.28;5090325;28;20556;-69